Time;durP1;ratioP1;P1;durP2;ratioP2;P2;SDS_P1;SDS_P2;PMS_P1;PMS_P2;Temp;Humidity;BMP_temperature;BMP_pressure;BME280_temperature;BME280_humidity;BME280_pressure;Samples;Min_cycle;Max_cycle;Signal;HPM_P1;HPM_P2
2023/09/07 10:54:59;;;;;;;;;;;;;;;27.94;35.59;101660.06;115214;1200;61582;-65
2023/09/07 10:57:27;;;;;;;;;;;;;;;28.54;34.19;101654.93;115981;1186;91143;-62
2023/09/07 10:59:56;;;;;;;;;;;;;;;28.76;34.03;101660.58;116361;1183;94767;-65
2023/09/07 11:02:24;;;;;;;;;;;;;;;29.00;33.50;101651.16;116145;1184;90631;-63
2023/09/07 11:04:52;;;;;;;;;;;;;;;29.08;32.91;101648.39;116092;1187;73869;-64
2023/09/07 11:07:20;;;;;;;;;;;;;;;29.29;32.47;101647.45;116039;1197;91335;-61
2023/09/07 11:09:51;;;;;;;;;;;;;;;29.43;32.57;101650.34;116044;1186;94160;-63
2023/09/07 11:12:22;;;;;;;;;;;;;;;29.51;32.38;101647.86;115931;1197;90916;-61
2023/09/07 11:14:51;;;;;;;;;;;;;;;29.54;32.88;101646.98;116380;1197;74273;-62
2023/09/07 11:17:25;;;;;;;;;;;;;;;29.63;33.01;101640.99;115928;1186;90554;-62
2023/09/07 14:42:02;;;;;;;;;;;;;;;27.33;36.86;101552.45;115744;1196;61664;-67
2023/09/07 14:44:31;;;;;;;;;;;;;;;27.78;36.30;101555.77;116802;1196;90723;-74
2023/09/07 14:46:59;;;;;;;;;;;;;;;28.21;35.64;101551.09;116253;1194;93668;-74
2023/09/07 14:49:28;;;;;;;;;;;;;;;28.48;35.69;101545.21;116427;1184;90261;-69
2023/09/07 14:51:56;;;;;;;;;;;;;;;28.58;35.04;101546.52;116176;1187;72837;-73
2023/09/07 14:54:24;;;;;;;;;;;;;;;28.65;34.90;101540.23;115937;1192;90290;-78
2023/09/07 14:56:52;;;;;;;;;;;;;;;28.71;34.84;101545.00;115973;1191;94283;-69
2023/09/07 14:59:23;;;;;;;;;;;;;;;28.80;34.53;101546.30;116125;1195;90725;-66
2023/09/07 15:01:52;;;;;;;;;;;;;;;28.89;34.77;101541.25;115864;1195;73725;-65
2023/09/07 15:04:31;;;;;;;;;;;;;;;28.94;34.62;101541.53;115853;1191;91729;-65
2023/09/07 15:07:01;;;;;;;;;;;;;;;28.96;34.40;101541.36;115931;1187;94579;-67
2023/09/07 15:09:29;;;;;;;;;;;;;;;28.97;34.33;101538.95;115954;1183;91658;-66
2023/09/07 15:11:57;;;;;;;;;;;;;;;28.96;34.45;101538.71;115753;1198;71839;-64
2023/09/07 15:14:25;;;;;;;;;;;;;;;28.95;34.39;101539.02;115894;1187;90449;-66
2023/09/07 15:16:54;;;;;;;;;;;;;;;28.94;34.50;101536.91;115959;1185;95639;-65
2023/09/07 15:19:22;;;;;;;;;;;;;;;28.95;34.14;101539.27;115790;1198;91603;-65
2023/09/07 15:21:52;;;;;;;;;;;;;;;28.94;34.09;101538.52;115960;1186;73829;-67
2023/09/07 15:24:21;;;;;;;;;;;;;;;28.93;33.93;101537.15;115875;1198;91314;-67
2023/09/07 15:26:49;;;;;;;;;;;;;;;28.93;33.72;101538.08;115939;1198;94643;-66
2023/09/07 15:29:19;;;;;;;;;;;;;;;28.93;33.57;101538.73;115853;1187;92062;-66
2023/09/07 15:31:50;;;;;;;;;;;;;;;28.92;33.32;101537.02;115967;1195;73235;-66
2023/09/07 15:34:18;;;;;;;;;;;;;;;28.91;32.98;101533.91;116190;1182;91130;-66
2023/09/07 15:36:49;;;;;;;;;;;;;;;28.91;33.11;101535.27;116181;1195;95561;-65
2023/09/07 15:39:20;;;;;;;;;;;;;;;28.90;32.94;101534.55;116182;1183;91870;-66
2023/09/07 15:41:48;;;;;;;;;;;;;;;28.91;33.00;101534.08;116230;1195;72404;-64
2023/09/07 15:44:18;;;;;;;;;;;;;;;28.93;33.19;101533.95;116177;1187;90514;-65
2023/09/07 15:46:47;;;;;;;;;;;;;;;28.93;33.23;101535.01;116168;1195;94118;-66
2023/09/07 15:49:15;;;;;;;;;;;;;;;28.92;33.06;101533.38;116198;1195;91757;-68
2023/09/07 15:51:43;;;;;;;;;;;;;;;28.90;33.21;101531.97;115800;1195;74158;-67
2023/09/07 15:54:14;;;;;;;;;;;;;;;28.90;33.21;101531.73;115810;1187;91107;-66
2023/09/07 15:56:44;;;;;;;;;;;;;;;28.88;33.18;101530.27;115618;1198;95524;-65
2023/09/07 15:59:15;;;;;;;;;;;;;;;28.88;33.12;101531.16;115606;1198;90652;-64
2023/09/07 16:01:43;;;;;;;;;;;;;;;28.88;33.22;101534.89;115820;1198;73103;-64
2023/09/07 16:04:14;;;;;;;;;;;;;;;28.86;33.26;101532.09;115641;1187;90551;-67
2023/09/07 16:06:44;;;;;;;;;;;;;;;28.86;33.39;101531.00;115624;1198;94794;-65
2023/09/07 16:09:12;;;;;;;;;;;;;;;28.85;33.32;101532.17;115693;1192;91391;-66
2023/09/07 16:11:43;;;;;;;;;;;;;;;28.84;33.55;101534.97;116226;1184;73219;-66
2023/09/07 16:14:11;;;;;;;;;;;;;;;28.82;33.62;101535.88;116180;1183;90761;-65
2023/09/07 16:16:39;;;;;;;;;;;;;;;28.80;33.71;101535.88;116212;1184;95164;-65
2023/09/07 16:19:08;;;;;;;;;;;;;;;28.78;33.88;101541.85;116050;1195;92018;-65
2023/09/07 16:21:36;;;;;;;;;;;;;;;28.75;33.97;101539.08;116091;1184;73984;-66
2023/09/07 16:24:06;;;;;;;;;;;;;;;28.75;34.24;101541.05;116222;1195;90521;-65
2023/09/07 16:26:36;;;;;;;;;;;;;;;28.74;33.77;101542.98;115970;1184;94485;-66
2023/09/07 16:29:04;;;;;;;;;;;;;;;28.73;33.97;101549.02;116261;1195;91213;-66
2023/09/07 16:31:32;;;;;;;;;;;;;;;28.72;34.03;101546.83;115999;1184;74227;-66
2023/09/07 16:34:03;;;;;;;;;;;;;;;28.69;33.79;101552.10;115888;1190;91036;-65
2023/09/07 16:36:31;;;;;;;;;;;;;;;28.68;33.82;101551.48;115838;1198;95203;-64
2023/09/07 16:39:03;;;;;;;;;;;;;;;28.65;33.79;101549.33;115792;1186;91414;-65
2023/09/07 16:41:31;;;;;;;;;;;;;;;28.62;33.50;101549.55;115837;1198;73367;-66
2023/09/07 16:44:00;;;;;;;;;;;;;;;28.61;33.94;101549.30;115951;1186;91043;-67
2023/09/07 16:46:30;;;;;;;;;;;;;;;28.59;33.92;101557.01;115846;1187;95210;-66
2023/09/07 16:48:58;;;;;;;;;;;;;;;28.59;34.15;101559.42;115840;1198;90118;-67
2023/09/07 16:51:27;;;;;;;;;;;;;;;28.56;33.98;101561.07;115904;1187;74356;-66
2023/09/07 16:53:56;;;;;;;;;;;;;;;28.55;34.17;101566.94;116223;1195;90159;-65
2023/09/07 16:56:27;;;;;;;;;;;;;;;28.53;34.27;101566.80;116310;1195;94225;-65
2023/09/07 16:58:58;;;;;;;;;;;;;;;28.52;34.10;101568.98;116071;1183;91717;-64
2023/09/07 17:01:50;;;;;;;;;;;;;;;28.57;34.01;101571.95;116164;1184;73527;-65
2023/09/07 17:04:25;;;;;;;;;;;;;;;28.60;34.04;101570.67;115965;1183;90578;-66
2023/09/07 17:06:53;;;;;;;;;;;;;;;28.57;33.91;101570.84;116023;1195;94655;-66
2023/09/07 17:09:33;;;;;;;;;;;;;;;28.55;33.97;101576.80;116182;1182;91731;-67
2023/09/07 17:12:01;;;;;;;;;;;;;;;28.56;34.06;101578.77;116015;1190;74022;-65
2023/09/07 17:14:29;;;;;;;;;;;;;;;28.55;34.25;101580.95;116215;1184;91158;-65
2023/09/07 17:16:59;;;;;;;;;;;;;;;28.52;34.42;101582.36;116245;1195;94745;-70
2023/09/07 17:19:29;;;;;;;;;;;;;;;28.50;34.09;101582.30;116290;1192;91817;-67
2023/09/07 17:21:57;;;;;;;;;;;;;;;28.50;34.31;101583.46;116280;1180;73399;-66
2023/09/07 17:24:25;;;;;;;;;;;;;;;28.50;34.41;101588.73;116326;1183;91197;-65
2023/09/07 17:26:54;;;;;;;;;;;;;;;28.49;34.24;101585.80;116197;1195;95633;-65
2023/09/07 17:29:22;;;;;;;;;;;;;;;28.46;34.34;101588.58;116224;1184;91056;-65
2023/09/07 17:31:51;;;;;;;;;;;;;;;28.45;34.64;101587.52;116025;1183;73352;-64
2023/09/07 17:34:19;;;;;;;;;;;;;;;28.44;34.68;101590.80;116157;1195;90060;-65
2023/09/07 17:36:49;;;;;;;;;;;;;;;28.39;34.87;101590.35;116098;1183;95166;-65
2023/09/07 17:39:19;;;;;;;;;;;;;;;28.40;35.02;101593.55;116210;1195;90708;-65
2023/09/07 17:41:47;;;;;;;;;;;;;;;28.43;34.78;101591.81;116178;1183;73615;-65
2023/09/07 17:44:16;;;;;;;;;;;;;;;28.43;34.71;101595.66;116239;1192;91134;-65
2023/09/07 17:46:44;;;;;;;;;;;;;;;28.43;34.45;101594.14;116872;1180;94791;-69
2023/09/07 17:49:17;;;;;;;;;;;;;;;28.54;34.27;101596.31;117132;1181;90691;-65
2023/09/07 17:51:45;;;;;;;;;;;;;;;28.64;34.29;101595.22;116805;1192;73659;-66
2023/09/07 17:54:13;;;;;;;;;;;;;;;28.67;33.97;101597.77;116401;1192;90645;-66
2023/09/07 17:56:43;;;;;;;;;;;;;;;28.61;34.11;101599.33;116337;1181;95216;-65
2023/09/07 17:59:11;;;;;;;;;;;;;;;28.52;33.99;101599.64;116298;1180;91711;-64
2023/09/07 18:01:39;;;;;;;;;;;;;;;28.48;34.16;101595.90;116427;1193;73737;-71
2023/09/07 18:04:07;;;;;;;;;;;;;;;28.45;34.34;101595.44;116434;1180;90467;-66
2023/09/07 18:06:36;;;;;;;;;;;;;;;28.46;34.41;101597.33;116262;1180;95014;-69
2023/09/07 18:09:06;;;;;;;;;;;;;;;28.42;34.12;101586.95;116590;1188;90787;-70
2023/09/07 18:11:37;;;;;;;;;;;;;;;28.40;34.31;101588.16;116597;1180;73698;-66
2023/09/07 18:14:05;;;;;;;;;;;;;;;28.39;34.42;101589.40;116658;1180;90363;-67
2023/09/07 18:16:40;;;;;;;;;;;;;;;28.38;34.55;101588.67;116656;1180;94975;-67
2023/09/07 18:19:09;;;;;;;;;;;;;;;28.39;34.45;101590.23;116639;1180;91864;-66
2023/09/07 18:21:38;;;;;;;;;;;;;;;28.37;34.46;101591.81;116622;1192;73752;-66
2023/09/07 18:24:09;;;;;;;;;;;;;;;28.35;34.58;101591.60;116623;1181;90783;-65
2023/09/07 18:26:37;;;;;;;;;;;;;;;28.31;34.46;101591.26;116708;1180;94465;-66
2023/09/07 18:29:05;;;;;;;;;;;;;;;28.30;34.44;101590.47;116265;1180;90122;-66
2023/09/07 18:31:35;;;;;;;;;;;;;;;28.29;34.80;101590.84;116324;1192;74067;-65
2023/09/07 18:34:03;;;;;;;;;;;;;;;28.28;34.79;101595.60;116611;1181;91931;-64
2023/09/07 18:36:32;;;;;;;;;;;;;;;28.26;34.45;101599.08;116671;1181;94554;-64
2023/09/07 18:39:01;;;;;;;;;;;;;;;28.25;34.78;101599.77;116623;1180;91143;-69
2023/09/07 18:41:29;;;;;;;;;;;;;;;28.24;34.57;101598.70;116592;1191;73412;-66
2023/09/07 18:43:57;;;;;;;;;;;;;;;28.24;34.65;101598.88;116629;1181;91034;-65
2023/09/07 18:46:28;;;;;;;;;;;;;;;28.25;34.75;101600.59;116602;1192;95400;-65
2023/09/07 18:48:56;;;;;;;;;;;;;;;28.25;34.63;101596.45;116686;1180;92043;-65
2023/09/07 18:51:25;;;;;;;;;;;;;;;28.24;34.69;101597.98;116175;1186;73785;-66
2023/09/07 18:53:54;;;;;;;;;;;;;;;28.19;34.64;101593.91;115922;1183;91231;-65
2023/09/07 18:56:22;;;;;;;;;;;;;;;28.21;34.66;101592.23;116121;1182;95720;-67
2023/09/07 18:58:51;;;;;;;;;;;;;;;28.20;34.76;101595.52;116161;1195;92216;-66
2023/09/07 19:01:21;;;;;;;;;;;;;;;28.18;34.89;101599.98;116155;1183;73726;-65
2023/09/07 19:03:53;;;;;;;;;;;;;;;28.21;34.98;101598.56;116145;1183;89747;-66
2023/09/07 19:06:24;;;;;;;;;;;;;;;28.21;35.01;101598.30;116111;1195;95016;-66
2023/09/07 19:08:52;;;;;;;;;;;;;;;28.20;35.07;101598.21;116189;1183;92138;-66
2023/09/07 19:11:20;;;;;;;;;;;;;;;28.21;35.04;101603.07;116668;1180;72764;-66
2023/09/07 19:13:50;;;;;;;;;;;;;;;28.19;34.95;101603.14;116570;1191;91066;-66
2023/09/07 19:16:19;;;;;;;;;;;;;;;28.19;34.72;101605.22;116607;1191;94071;-66
2023/09/07 19:18:49;;;;;;;;;;;;;;;28.18;34.75;101605.98;116650;1179;91891;-66
2023/09/07 19:21:19;;;;;;;;;;;;;;;28.22;34.85;101609.05;116569;1192;74243;-65
2023/09/07 19:23:53;;;;;;;;;;;;;;;28.24;34.93;101610.80;116636;1179;90905;-66
2023/09/07 19:26:27;;;;;;;;;;;;;;;28.25;34.88;101614.40;116551;1191;94682;-67
2023/09/07 19:28:55;;;;;;;;;;;;;;;28.20;34.86;101611.41;116652;1179;92060;-68
2023/09/07 19:31:24;;;;;;;;;;;;;;;28.21;34.86;101607.63;116647;1180;72905;-67
2023/09/07 19:33:52;;;;;;;;;;;;;;;28.22;35.03;101608.16;116644;1191;89851;-67
2023/09/07 19:36:21;;;;;;;;;;;;;;;28.21;35.05;101608.14;116585;1179;94613;-67
2023/09/07 19:38:51;;;;;;;;;;;;;;;28.18;35.01;101608.06;116601;1192;92591;-65
2023/09/07 19:41:19;;;;;;;;;;;;;;;28.17;35.20;101604.73;116650;1179;73817;-64
2023/09/07 19:43:47;;;;;;;;;;;;;;;28.15;35.13;101608.49;116647;1187;90999;-66
2023/09/07 19:46:15;;;;;;;;;;;;;;;28.16;35.03;101605.77;116554;1180;95206;-67
2023/09/07 19:48:45;;;;;;;;;;;;;;;28.15;35.18;101603.59;116617;1191;92333;-64
2023/09/07 19:51:14;;;;;;;;;;;;;;;28.12;35.22;101599.71;116648;1189;73461;-65
2023/09/07 19:53:43;;;;;;;;;;;;;;;28.11;35.39;101598.75;116636;1181;90528;-66
2023/09/07 19:56:13;;;;;;;;;;;;;;;28.13;35.29;101596.55;116700;1181;94813;-67
2023/09/07 19:58:41;;;;;;;;;;;;;;;28.14;35.33;101596.26;116877;1180;92039;-67
2023/09/07 20:01:13;;;;;;;;;;;;;;;28.17;35.44;101592.14;116640;1179;72447;-65
2023/09/07 20:03:43;;;;;;;;;;;;;;;28.27;34.99;101590.61;116801;1191;90700;-67
2023/09/07 20:06:14;;;;;;;;;;;;;;;28.33;34.85;101589.67;116658;1180;93735;-66
2023/09/07 20:08:42;;;;;;;;;;;;;;;28.30;34.95;101588.15;116646;1181;92474;-66
2023/09/07 20:11:11;;;;;;;;;;;;;;;28.27;35.12;101587.86;116757;1181;73604;-67
2023/09/07 20:13:40;;;;;;;;;;;;;;;28.32;35.05;101588.21;116848;1180;91048;-66
2023/09/07 20:16:11;;;;;;;;;;;;;;;28.40;34.84;101587.78;116729;1180;94021;-67
